Decoded Metar for YPGV (GOVE AIRPORT in AUSTRALIA) (IATA:N/A) | Meteo·Mobile Aviation Weather
aviador You're here:

YPGV Decoded Metar

GOVE AIRPORT in AUSTRALIA
Report Time2019-05-21 02:30:00
UTC Time2019-05-21 02:57:17
Flight Rules mvfr MVFR
Wind110° at 15 kt
W.Decomp.*RWY 13: 13.7 kt HW 6.1 kt LCW
Visibility9999 m
Phenomena:Vicinity showers
Clouds:Scattered 008 Hf
Broken 020 Hf
Expected CloudBase > 1,200 ft AGL from Temp-Dew spread
Ceiling2,000 ft
Temp26°C (ISA +11)
Dew Point23°C (84% RH)
AAT25.9°C
QNH1014 hPa
Density Alt1,827 ft
Elevation180 ft
Report Wrong Elevation
Raw Report
YPGV 210230Z 11015KT 9999 VCSH SCT008 BKN020 26/23 Q1014
RF00.0/000.2=

Extra information for YPGV:More info

Metar Taf Metar & Taf Last 4 Metars F.Rules Stats Wind Profile Meteogram Temp Stats Airport Information Weather charts Add Link Nearby VenuesMetar ALERT Operation Metar Decoded Social comments